Terminal Aerodrome Forecast
Issued by NWS

Home | Current Version | Previous Version | Graphics & Text | Print | Product List | Glossary On
Versions: 1 2 3 4 5 6 7 8 9 10 11 12 13 14 15 16 17 18 19
801
FTUS43 KTOP 240719 AAA
TAFFOE
TAF AMD
KFOE 240719Z 2407/2506 19012KT P6SM BKN250 WS015/18050KT
     FM241400 18017G25KT P6SM SCT020 BKN035
     FM241900 16013KT P6SM VCTS BKN040CB
     FM250000 13008KT P6SM VCTS BKN060CB=

USA.gov is the U.S. government's official web portal to all federal, state and local government web resources and services.